createdAt,value
2022-10-29T00:02:02.549Z,52.67
2022-10-29T00:04:32.040Z,52.25
2022-10-29T00:07:01.443Z,51.25
2022-10-29T00:09:30.808Z,52.50
2022-10-29T00:12:00.224Z,51.75
2022-10-29T00:14:29.629Z,50.25
2022-10-29T00:16:59.061Z,51.50
2022-10-29T00:19:28.604Z,51.00
2022-10-29T00:21:57.209Z,51.67
2022-10-29T00:24:26.585Z,48.50
2022-10-29T00:26:55.989Z,44.33
2022-10-29T00:29:24.644Z,48.33
2022-10-29T00:31:54.188Z,49.00
2022-10-29T00:34:23.675Z,50.00
2022-10-29T00:36:52.287Z,50.67
2022-10-29T00:39:21.703Z,50.00
2022-10-29T00:41:52.918Z,49.50
2022-10-29T00:44:38.704Z,48.00
2022-10-29T00:47:36.046Z,50.75
2022-10-29T00:50:10.472Z,52.00
2022-10-29T00:52:45.763Z,51.00
2022-10-29T00:55:16.604Z,51.00
2022-10-29T00:57:53.100Z,47.33
2022-10-29T01:00:23.349Z,49.00
2022-10-29T01:02:53.092Z,53.00
2022-10-29T01:05:25.886Z,52.00
2022-10-29T01:07:55.431Z,50.00
2022-10-29T01:11:34.090Z,51.33
2022-10-29T01:14:45.293Z,51.00
2022-10-29T01:18:04.095Z,50.33
2022-10-29T01:21:16.678Z,52.00
2022-10-29T01:24:38.256Z,53.75
2022-10-29T01:27:50.119Z,53.00
2022-10-29T01:31:13.246Z,50.00
2022-10-29T01:34:10.901Z,50.75
2022-10-29T01:37:01.916Z,52.67
2022-10-29T01:39:57.955Z,51.00
2022-10-29T01:42:39.046Z,51.50
2022-10-29T01:45:45.010Z,50.50
2022-10-29T01:48:22.800Z,52.25
2022-10-29T01:50:58.939Z,48.00
2022-10-29T01:53:31.068Z,51.50
2022-10-29T01:56:00.505Z,49.75
2022-10-29T01:58:30.055Z,48.33
2022-10-29T02:01:24.233Z,47.00
2022-10-29T02:04:45.713Z,49.75
2022-10-29T02:07:49.129Z,51.75
2022-10-29T02:11:09.761Z,51.00
2022-10-29T02:14:09.758Z,50.00
2022-10-29T02:16:39.677Z,50.00
2022-10-29T02:19:09.165Z,49.67
2022-10-29T02:21:40.544Z,51.00
2022-10-29T02:24:10.248Z,50.33
2022-10-29T02:26:39.690Z,51.00
2022-10-29T02:29:09.107Z,51.00
2022-10-29T02:31:38.503Z,51.00
2022-10-29T02:34:08.107Z,51.00
2022-10-29T02:36:37.628Z,52.00
2022-10-29T02:39:07.108Z,50.00
2022-10-29T02:41:36.622Z,51.00
2022-10-29T02:44:05.430Z,49.67
2022-10-29T02:46:39.674Z,47.00
2022-10-29T02:49:09.402Z,48.75
2022-10-29T02:51:38.831Z,47.75
2022-10-29T02:54:08.331Z,44.50
2022-10-29T02:56:37.733Z,49.50
2022-10-29T02:59:10.788Z,48.33
2022-10-29T03:01:41.760Z,49.67
2022-10-29T03:04:12.568Z,47.67
2022-10-29T03:06:41.984Z,47.25
2022-10-29T03:09:11.473Z,50.25
2022-10-29T03:11:40.912Z,50.00
2022-10-29T03:14:10.414Z,50.75
2022-10-29T03:16:39.819Z,51.75
2022-10-29T03:19:09.295Z,52.00
2022-10-29T03:21:38.696Z,50.50
2022-10-29T03:24:07.704Z,55.00
2022-10-29T03:26:36.434Z,54.00
2022-10-29T03:29:05.867Z,52.50
2022-10-29T03:31:34.576Z,50.33
2022-10-29T03:34:03.338Z,49.50
2022-10-29T03:36:32.829Z,51.00
2022-10-29T03:39:02.227Z,47.50
2022-10-29T03:41:31.684Z,50.50
2022-10-29T03:44:01.077Z,50.50
2022-10-29T03:46:29.800Z,51.00
2022-10-29T03:48:59.414Z,52.25
2022-10-29T03:51:28.914Z,49.50
2022-10-29T03:53:57.525Z,50.00
2022-10-29T03:56:26.981Z,50.25
2022-10-29T03:58:56.467Z,49.25
2022-10-29T04:01:26.159Z,49.33
2022-10-29T04:03:55.697Z,50.25
2022-10-29T04:06:25.103Z,49.50
2022-10-29T04:08:55.709Z,51.75
2022-10-29T04:11:25.118Z,52.00
2022-10-29T04:13:54.816Z,51.33
2022-10-29T04:16:24.484Z,50.00
2022-10-29T04:18:53.969Z,51.33
2022-10-29T04:29:52.077Z,52.00
2022-10-29T04:32:21.627Z,53.00
2022-10-29T04:34:51.083Z,52.00
2022-10-29T04:37:20.484Z,50.75
2022-10-29T04:39:49.944Z,53.25
2022-10-29T04:42:19.499Z,51.00
2022-10-29T04:44:48.184Z,53.00
2022-10-29T04:47:17.686Z,45.50
2022-10-29T04:49:47.139Z,50.75
2022-10-29T04:52:16.694Z,50.50
2022-10-29T04:54:46.132Z,52.50
2022-10-29T04:57:14.771Z,52.67
2022-10-29T04:59:44.385Z,52.67
2022-10-29T05:02:13.931Z,53.33
2022-10-29T05:04:43.413Z,51.00
2022-10-29T05:07:12.898Z,54.75
2022-10-29T05:09:40.650Z,52.50
2022-10-29T05:12:09.586Z,53.33
2022-10-29T05:14:39.048Z,54.00
2022-10-29T05:17:08.577Z,52.00
2022-10-29T05:19:37.304Z,51.67
2022-10-29T05:22:06.736Z,51.00
2022-10-29T05:24:35.375Z,52.00
2022-10-29T05:27:07.732Z,52.67
2022-10-29T05:29:37.227Z,49.25
2022-10-29T05:32:06.717Z,52.25
2022-10-29T05:34:38.380Z,52.00
2022-10-29T05:37:08.875Z,52.00
2022-10-29T05:39:38.329Z,51.75
2022-10-29T05:42:07.767Z,51.00
2022-10-29T05:44:37.264Z,50.50
2022-10-29T05:47:08.151Z,50.25
2022-10-29T05:49:37.521Z,50.67
2022-10-29T05:52:06.999Z,46.50
2022-10-29T05:54:36.473Z,50.50
2022-10-29T05:57:05.938Z,49.00
2022-10-29T05:59:35.506Z,45.33
2022-10-29T06:02:05.281Z,50.67
2022-10-29T06:04:35.350Z,48.00
2022-10-29T06:07:05.394Z,49.33
2022-10-29T06:09:34.868Z,51.00
2022-10-29T06:12:04.874Z,49.33
2022-10-29T06:14:34.521Z,49.75
2022-10-29T06:17:03.979Z,51.25
2022-10-29T06:19:33.475Z,45.50
2022-10-29T06:22:03.021Z,47.00
2022-10-29T06:24:32.636Z,48.00
2022-10-29T06:27:02.206Z,47.67
2022-10-29T06:29:42.364Z,46.00
2022-10-29T06:32:11.832Z,47.00
2022-10-29T06:34:41.263Z,41.33
2022-10-29T06:37:11.032Z,42.75
2022-10-29T06:39:40.457Z,46.25
2022-10-29T06:42:09.942Z,45.67
2022-10-29T06:44:39.502Z,46.00
2022-10-29T06:47:09.012Z,48.00
2022-10-29T06:49:37.370Z,220.20
2022-10-29T06:52:06.327Z,49.67
2022-10-29T06:54:35.790Z,59.75
2022-10-29T06:57:05.166Z,48.50
2022-10-29T06:59:34.675Z,46.00
2022-10-29T07:02:04.307Z,45.00
2022-10-29T07:04:36.881Z,45.33
2022-10-29T07:07:06.324Z,47.75
2022-10-29T07:09:35.818Z,48.00
2022-10-29T07:12:05.718Z,48.25
2022-10-29T07:14:35.484Z,48.00
2022-10-29T07:17:04.940Z,46.00
2022-10-29T07:19:34.458Z,45.75
2022-10-29T07:22:04.002Z,45.33
2022-10-29T07:24:33.444Z,44.33
2022-10-29T07:27:03.041Z,45.00
2022-10-29T07:29:33.367Z,44.00
2022-10-29T07:32:02.892Z,41.00
2022-10-29T07:34:32.396Z,45.67
2022-10-29T07:37:01.923Z,43.00
2022-10-29T07:42:20.066Z,40.33
2022-10-29T07:44:52.597Z,42.33
2022-10-29T07:47:22.129Z,38.67
2022-10-29T07:49:51.549Z,39.00
2022-10-29T07:52:20.960Z,42.00
2022-10-29T07:54:49.610Z,37.67
2022-10-29T07:57:19.181Z,40.00
2022-10-29T07:59:48.021Z,40.67
2022-10-29T08:02:17.615Z,38.67
2022-10-29T08:04:47.193Z,42.00
2022-10-29T08:07:16.788Z,44.00
2022-10-29T08:09:45.456Z,46.33
2022-10-29T08:12:14.192Z,44.00
2022-10-29T08:14:43.824Z,43.33
2022-10-29T08:17:12.531Z,41.33
2022-10-29T08:19:41.211Z,42.33
2022-10-29T08:22:10.678Z,42.00
2022-10-29T08:24:40.119Z,42.50
2022-10-29T08:27:09.600Z,40.50
2022-10-29T08:29:39.050Z,44.00
2022-10-29T08:32:08.584Z,43.50
2022-10-29T08:34:38.020Z,42.00
2022-10-29T08:37:08.434Z,44.75
2022-10-29T08:39:37.904Z,44.75
2022-10-29T08:42:41.169Z,45.25
2022-10-29T08:45:35.250Z,44.00
2022-10-29T08:48:44.545Z,45.00
2022-10-29T08:51:22.803Z,46.25
2022-10-29T08:54:25.042Z,43.75
2022-10-29T08:56:54.317Z,44.67
2022-10-29T08:59:26.705Z,46.00
2022-10-29T09:01:56.369Z,42.67
2022-10-29T09:04:36.067Z,43.67
2022-10-29T09:07:47.910Z,48.00
2022-10-29T09:10:51.193Z,47.33
2022-10-29T09:13:44.881Z,47.33
2022-10-29T09:17:14.705Z,46.33
2022-10-29T09:20:15.507Z,49.00
2022-10-29T09:23:03.314Z,45.75
2022-10-29T09:25:46.702Z,46.67
2022-10-29T09:28:34.148Z,48.00
2022-10-29T09:31:27.843Z,48.00
2022-10-29T09:34:06.265Z,50.33
2022-10-29T09:36:35.105Z,49.67
2022-10-29T09:39:19.690Z,48.00
2022-10-29T09:41:55.137Z,49.00
2022-10-29T09:44:57.258Z,47.00
2022-10-29T09:48:03.868Z,51.67
2022-10-29T09:51:17.675Z,49.00
2022-10-29T09:53:47.304Z,54.75
2022-10-29T09:56:16.003Z,52.00
2022-10-29T09:58:53.585Z,53.00
2022-10-29T10:01:23.236Z,50.25
2022-10-29T10:04:12.827Z,51.00
2022-10-29T10:07:18.623Z,51.75
2022-10-29T10:10:02.137Z,52.33
2022-10-29T10:12:52.085Z,53.25
2022-10-29T10:15:31.008Z,52.00
2022-10-29T10:18:16.771Z,51.00
2022-10-29T10:21:09.783Z,50.67
2022-10-29T10:23:47.508Z,52.75
2022-10-29T10:26:45.020Z,50.00
2022-10-29T10:29:26.604Z,51.75
2022-10-29T10:31:58.962Z,50.25
2022-10-29T10:34:39.374Z,49.50
2022-10-29T10:37:10.925Z,49.67
2022-10-29T10:40:04.041Z,48.75
2022-10-29T10:42:43.014Z,49.00
2022-10-29T10:45:24.677Z,49.25
2022-10-29T10:47:59.164Z,52.00
2022-10-29T10:50:37.479Z,49.00
2022-10-29T10:53:22.110Z,51.00
2022-10-29T10:55:58.118Z,47.75
2022-10-29T10:58:45.169Z,50.00
2022-10-29T11:01:44.371Z,50.00
2022-10-29T11:04:35.329Z,52.00
2022-10-29T11:07:10.010Z,54.00
2022-10-29T11:09:47.000Z,52.00
2022-10-29T11:12:35.282Z,57.50
2022-10-29T11:15:30.143Z,53.25
2022-10-29T11:18:35.431Z,50.33
2022-10-29T11:21:33.628Z,48.00
2022-10-29T11:24:43.742Z,51.25
2022-10-29T11:27:34.829Z,52.00
2022-10-29T11:30:16.478Z,50.00
2022-10-29T11:33:06.534Z,49.67
2022-10-29T11:36:19.387Z,54.00
2022-10-29T11:39:23.692Z,52.50
2022-10-29T11:41:59.627Z,53.00
2022-10-29T11:44:39.587Z,52.00
2022-10-29T11:48:22.012Z,53.33
2022-10-29T11:51:11.154Z,50.33
2022-10-29T11:54:37.622Z,52.25
2022-10-29T11:57:40.967Z,50.00
2022-10-29T12:00:16.919Z,52.00
2022-10-29T12:03:44.592Z,55.50
2022-10-29T12:06:40.296Z,53.50
2022-10-29T12:10:03.331Z,51.50
2022-10-29T12:13:26.163Z,46.00
2022-10-29T12:16:42.828Z,52.67
2022-10-29T12:19:45.073Z,52.75
2022-10-29T12:23:05.231Z,52.00
2022-10-29T12:26:10.564Z,52.33
2022-10-29T12:29:20.054Z,54.00
2022-10-29T12:32:44.939Z,56.75
2022-10-29T12:35:45.119Z,57.75
2022-10-29T12:38:45.333Z,55.50
2022-10-29T12:41:44.634Z,61.00
2022-10-29T12:44:33.770Z,60.00
2022-10-29T12:47:51.215Z,56.25
2022-10-29T12:51:22.439Z,62.50
2022-10-29T12:54:37.709Z,57.75
2022-10-29T12:57:33.947Z,57.25
2022-10-29T13:00:27.487Z,56.00
2022-10-29T13:02:58.388Z,59.75
2022-10-29T13:05:26.331Z,59.00
2022-10-29T13:08:04.772Z,59.25
2022-10-29T13:10:34.217Z,59.00
2022-10-29T13:13:27.483Z,55.00
2022-10-29T13:16:13.363Z,56.25
2022-10-29T13:18:56.952Z,64.00
2022-10-29T13:22:34.666Z,61.00
2022-10-29T13:25:38.224Z,59.00
2022-10-29T13:28:08.615Z,63.00
2022-10-29T13:30:41.706Z,64.00
2022-10-29T13:33:27.286Z,62.50
2022-10-29T13:36:29.678Z,59.50
2022-10-29T13:39:07.316Z,64.75
2022-10-29T13:41:46.561Z,68.00
2022-10-29T13:44:22.730Z,69.67
2022-10-29T13:47:04.319Z,59.25
2022-10-29T13:49:49.297Z,68.25
2022-10-29T13:52:24.957Z,69.50
2022-10-29T13:55:15.684Z,69.75
2022-10-29T13:58:22.789Z,73.75
2022-10-29T14:00:51.275Z,71.50
2022-10-29T14:03:56.413Z,67.25
2022-10-29T14:06:33.839Z,68.50
2022-10-29T14:09:38.426Z,74.75
2022-10-29T14:12:10.908Z,71.00
2022-10-29T14:15:10.234Z,77.00
2022-10-29T14:17:39.940Z,70.00
2022-10-29T14:20:25.016Z,74.00
2022-10-29T14:22:53.421Z,71.50
2022-10-29T14:25:41.411Z,74.00
2022-10-29T14:28:38.397Z,77.00
2022-10-29T14:31:22.903Z,75.50
2022-10-29T14:33:59.722Z,82.50
2022-10-29T14:36:49.417Z,84.00
2022-10-29T14:39:55.343Z,91.25
2022-10-29T14:42:43.643Z,87.67
2022-10-29T14:45:30.021Z,68.00
2022-10-29T14:48:10.462Z,85.00
2022-10-29T14:50:38.371Z,79.00
2022-10-29T14:53:34.872Z,89.00
2022-10-29T14:56:11.851Z,84.00
2022-10-29T14:58:40.171Z,94.00
2022-10-29T15:01:17.221Z,90.00
2022-10-29T15:03:45.358Z,85.50
2022-10-29T15:06:19.270Z,88.33
2022-10-29T15:09:07.676Z,88.50
2022-10-29T15:11:42.228Z,86.00
2022-10-29T15:14:50.816Z,79.50
2022-10-29T15:17:31.808Z,81.25
2022-10-29T15:20:05.588Z,80.00
2022-10-29T15:22:39.903Z,69.25
2022-10-29T15:25:31.239Z,72.00
2022-10-29T15:28:02.458Z,76.00
2022-10-29T15:30:37.172Z,74.33
2022-10-29T15:33:15.003Z,73.50
2022-10-29T15:36:04.114Z,74.50
2022-10-29T15:38:34.356Z,80.00
2022-10-29T15:41:12.657Z,74.75
2022-10-29T15:43:55.680Z,75.67
2022-10-29T15:46:30.880Z,74.00
2022-10-29T15:49:00.416Z,82.00
2022-10-29T15:51:32.275Z,90.75
2022-10-29T15:54:03.475Z,91.50
2022-10-29T15:56:32.698Z,89.50
2022-10-29T15:59:01.298Z,86.00
2022-10-29T16:01:31.000Z,81.67
2022-10-29T16:04:00.629Z,80.00
2022-10-29T16:06:29.128Z,81.00
2022-10-29T16:09:00.418Z,80.00
2022-10-29T16:11:30.276Z,81.33
2022-10-29T16:14:02.905Z,84.67
2022-10-29T16:16:31.805Z,80.00
2022-10-29T16:19:01.371Z,93.67
2022-10-29T16:21:34.005Z,93.33
2022-10-29T16:24:03.816Z,85.00
2022-10-29T16:26:31.680Z,76.00
2022-10-29T16:29:02.043Z,74.50
2022-10-29T16:31:30.694Z,72.00
2022-10-29T16:34:06.668Z,82.50
2022-10-29T16:36:34.516Z,71.00
2022-10-29T16:39:02.271Z,69.50
2022-10-29T16:41:30.485Z,81.00
2022-10-29T16:43:58.227Z,81.00
2022-10-29T16:46:28.084Z,68.00
2022-10-29T16:48:55.789Z,74.00
2022-10-29T16:51:25.529Z,67.00
2022-10-29T16:53:53.489Z,71.50
2022-10-29T16:56:23.018Z,61.75
2022-10-29T16:58:51.115Z,76.00
2022-10-29T17:03:53.693Z,76.00
2022-10-29T17:06:23.302Z,76.00
2022-10-29T17:08:51.064Z,80.00
2022-10-29T17:11:20.666Z,67.33
2022-10-29T17:13:50.377Z,71.33
2022-10-29T17:16:19.139Z,77.50
2022-10-29T17:18:50.854Z,72.33
2022-10-29T17:21:19.149Z,76.50
2022-10-29T17:23:48.895Z,64.33
2022-10-29T17:26:18.392Z,70.50
2022-10-29T17:28:46.167Z,68.50
2022-10-29T17:31:15.738Z,66.75
2022-10-29T17:33:45.258Z,63.50
2022-10-29T17:36:15.695Z,70.00
2022-10-29T17:38:46.131Z,70.33
2022-10-29T17:41:15.916Z,68.00
2022-10-29T17:43:43.796Z,70.00
2022-10-29T17:46:14.245Z,66.00
2022-10-29T17:48:42.304Z,67.50
2022-10-29T17:51:12.014Z,73.67
2022-10-29T17:53:39.744Z,68.00
2022-10-29T17:56:07.949Z,73.50
2022-10-29T17:58:42.285Z,69.00
2022-10-29T18:01:13.112Z,70.50
2022-10-29T18:03:41.411Z,73.00
2022-10-29T18:06:13.832Z,69.50
2022-10-29T18:08:44.438Z,74.33
2022-10-29T18:11:17.661Z,71.25
2022-10-29T18:13:49.242Z,65.75
2022-10-29T18:16:27.137Z,69.00
2022-10-29T18:19:03.032Z,67.67
2022-10-29T18:21:32.727Z,70.50
2022-10-29T18:24:03.095Z,66.25
2022-10-29T18:26:35.785Z,63.25
2022-10-29T18:29:12.718Z,67.33
2022-10-29T18:31:44.995Z,67.00
2022-10-29T18:34:17.087Z,65.33
2022-10-29T18:36:47.726Z,61.75
2022-10-29T18:39:17.259Z,65.75
2022-10-29T18:41:46.745Z,64.00
2022-10-29T18:44:14.526Z,76.00
2022-10-29T18:46:44.234Z,66.33
2022-10-29T18:49:15.960Z,64.00
2022-10-29T18:51:46.476Z,63.25
2022-10-29T18:54:15.014Z,59.50
2022-10-29T18:56:44.617Z,61.25
2022-10-29T18:59:14.281Z,64.00
2022-10-29T19:01:42.546Z,63.00
2022-10-29T19:04:18.408Z,56.50
2022-10-29T19:06:47.215Z,64.00
2022-10-29T19:09:15.131Z,67.00
2022-10-29T19:11:44.676Z,69.25
2022-10-29T19:14:14.721Z,61.50
2022-10-29T19:16:42.630Z,65.00
2022-10-29T19:19:16.053Z,65.00
2022-10-29T19:21:49.369Z,66.50
2022-10-29T19:24:19.125Z,59.75
2022-10-29T19:26:47.452Z,64.00
2022-10-29T19:29:17.487Z,61.00
2022-10-29T19:31:48.278Z,63.50
2022-10-29T19:34:16.068Z,58.00
2022-10-29T19:36:43.919Z,56.50
2022-10-29T19:39:14.549Z,54.50
2022-10-29T19:41:44.043Z,52.50
2022-10-29T19:44:14.137Z,54.67
2022-10-29T19:46:43.945Z,57.50
2022-10-29T19:49:13.524Z,56.25
2022-10-29T19:51:43.170Z,57.75
2022-10-29T19:54:12.964Z,63.00
2022-10-29T19:56:42.523Z,60.50
2022-10-29T19:59:10.418Z,63.00
2022-10-29T20:01:41.955Z,58.33
2022-10-29T20:04:10.409Z,62.50
2022-10-29T20:06:38.178Z,56.00
2022-10-29T20:09:07.853Z,62.25
2022-10-29T20:11:37.375Z,55.25
2022-10-29T20:14:06.991Z,53.25
2022-10-29T20:16:36.459Z,57.00
2022-10-29T20:19:05.987Z,56.00
2022-10-29T20:21:35.557Z,55.75
2022-10-29T20:24:03.630Z,60.00
2022-10-29T20:26:31.456Z,58.00
2022-10-29T20:28:59.709Z,56.50
2022-10-29T20:31:34.715Z,58.33
2022-10-29T20:34:09.313Z,57.33
2022-10-29T20:36:39.184Z,62.00
2022-10-29T20:39:08.712Z,57.00
2022-10-29T20:41:38.514Z,55.00
2022-10-29T20:44:09.102Z,54.00
2022-10-29T20:46:42.522Z,57.25
2022-10-29T20:49:13.156Z,55.00
2022-10-29T20:51:42.739Z,56.00
2022-10-29T20:54:15.016Z,58.25
2022-10-29T20:56:44.593Z,58.75
2022-10-29T20:59:14.198Z,55.50
2022-10-29T21:01:42.071Z,56.50
2022-10-29T21:04:11.727Z,63.25
2022-10-29T21:06:39.518Z,56.00
2022-10-29T21:09:07.800Z,59.50
2022-10-29T21:11:35.523Z,62.50
2022-10-29T21:14:06.205Z,64.33
2022-10-29T21:16:33.991Z,59.00
2022-10-29T21:19:07.298Z,60.67
2022-10-29T21:21:37.272Z,55.00
2022-10-29T21:24:07.345Z,62.75
2022-10-29T21:26:35.085Z,60.50
2022-10-29T21:29:02.984Z,60.50
2022-10-29T21:31:30.866Z,59.00
2022-10-29T21:33:58.668Z,60.50
2022-10-29T21:36:26.697Z,58.00
2022-10-29T21:38:56.533Z,59.75
2022-10-29T21:41:26.111Z,60.25
2022-10-29T21:43:57.134Z,59.50
2022-10-29T21:46:24.873Z,64.50
2022-10-29T21:48:56.874Z,60.75
2022-10-29T21:51:25.247Z,72.50
2022-10-29T21:53:55.563Z,60.50
2022-10-29T21:56:25.251Z,62.67
2022-10-29T21:58:52.986Z,63.50
2022-10-29T22:01:21.025Z,65.00
2022-10-29T22:03:51.865Z,62.50
2022-10-29T22:06:24.111Z,61.00
2022-10-29T22:08:58.732Z,61.00
2022-10-29T22:11:29.547Z,61.50
2022-10-29T22:13:59.282Z,63.25
2022-10-29T22:16:27.077Z,60.50
2022-10-29T22:18:56.617Z,59.75
2022-10-29T22:21:26.855Z,59.00
2022-10-29T22:23:59.126Z,64.50
2022-10-29T22:26:30.458Z,65.00
2022-10-29T22:29:00.024Z,53.00
2022-10-29T22:31:30.660Z,60.50
2022-10-29T22:34:00.202Z,64.50
2022-10-29T22:36:28.640Z,54.00
2022-10-29T22:39:01.602Z,57.00
2022-10-29T22:41:31.851Z,55.50
2022-10-29T22:44:01.637Z,54.00
2022-10-29T22:46:31.257Z,56.50
2022-10-29T22:49:03.806Z,54.00
2022-10-29T22:51:34.424Z,56.00
2022-10-29T22:54:04.662Z,55.25
2022-10-29T22:56:38.552Z,62.00
2022-10-29T22:59:08.740Z,58.67
2022-10-29T23:01:42.227Z,60.00
2022-10-29T23:04:13.830Z,58.00
2022-10-29T23:06:43.444Z,59.50
2022-10-29T23:09:11.233Z,62.00
2022-10-29T23:11:40.824Z,58.50
2022-10-29T23:14:08.697Z,62.50
2022-10-29T23:16:38.385Z,57.33
2022-10-29T23:19:08.191Z,67.75
2022-10-29T23:21:37.015Z,68.00
2022-10-29T23:24:07.237Z,57.25
2022-10-29T23:26:36.814Z,56.00
2022-10-29T23:29:06.415Z,64.50
2022-10-29T23:31:35.931Z,57.25
2022-10-29T23:34:11.844Z,60.00
2022-10-29T23:36:41.663Z,63.50
2022-10-29T23:39:12.755Z,57.25
2022-10-29T23:41:42.218Z,60.50
2022-10-29T23:44:11.686Z,63.75
2022-10-29T23:46:41.145Z,62.25
2022-10-29T23:49:08.887Z,56.00
2022-10-29T23:51:38.394Z,65.00
2022-10-29T23:54:07.871Z,65.50
2022-10-29T23:56:37.392Z,57.50
2022-10-29T23:59:05.085Z,58.50
